Time;durP1;ratioP1;P1;durP2;ratioP2;P2;SDS_P1;SDS_P2;PMS_P1;PMS_P2;Temp;Humidity;BMP_temperature;BMP_pressure;BME280_temperature;BME280_humidity;BME280_pressure;Samples;Min_cycle;Max_cycle;Signal;HPM_P1;HPM_P2
2023/11/12 00:00:07;;;;;;;5.80;2.70;;;;;;;8.73;85.41;99374.19;6153934;23;20103;-84
2023/11/12 00:02:33;;;;;;;5.32;2.47;;;;;;;8.83;83.48;99379.78;6153512;23;20431;-84
2023/11/12 00:04:58;;;;;;;6.00;2.92;;;;;;;8.65;85.56;99370.78;6126980;23;20060;-85
2023/11/12 00:07:24;;;;;;;7.15;2.90;;;;;;;8.80;85.54;99398.84;6127303;23;20013;-83
2023/11/12 00:09:50;;;;;;;4.95;2.40;;;;;;;8.99;83.85;99391.63;6127271;23;20063;-84
2023/11/12 00:12:16;;;;;;;5.97;2.40;;;;;;;9.14;83.06;99402.69;6127571;23;20005;-85
2023/11/12 00:14:45;;;;;;;24.50;3.83;;;;;;;9.07;85.36;99406.47;6127527;23;20095;-84
2023/11/12 00:17:13;;;;;;;5.32;2.67;;;;;;;8.96;84.11;99408.06;6127565;23;20491;-83
2023/11/12 00:19:39;;;;;;;5.78;2.92;;;;;;;8.66;86.50;99374.25;6127231;23;20021;-83
2023/11/12 00:22:05;;;;;;;6.55;2.83;;;;;;;8.93;84.24;99381.88;6127665;23;20362;-84
2023/11/12 00:24:31;;;;;;;7.43;3.28;;;;;;;8.92;84.73;99394.38;6127532;23;20096;-84
2023/11/12 00:26:56;;;;;;;6.07;2.90;;;;;;;8.94;84.38;99410.94;6127656;23;20035;-85
2023/11/12 00:29:22;;;;;;;6.43;2.80;;;;;;;8.87;85.13;99396.09;6126700;23;20009;-83
2023/11/12 00:31:47;;;;;;;7.05;3.00;;;;;;;8.85;85.24;99410.44;6127331;23;20089;-83
2023/11/12 00:34:13;;;;;;;6.82;3.22;;;;;;;8.61;88.85;99403.34;6126815;23;20013;-83
2023/11/12 00:36:42;;;;;;;7.60;3.67;;;;;;;8.39;88.96;99400.28;6126997;23;20008;-82
2023/11/12 00:39:11;;;;;;;30.98;25.55;;;;;;;8.20;88.07;99405.59;6127067;23;20009;-84
2023/11/12 00:41:38;;;;;;;19.77;14.32;;;;;;;7.96;89.73;99411.75;6126344;23;20032;-84
2023/11/12 00:44:04;;;;;;;13.15;11.60;;;;;;;7.98;90.32;99421.09;6127131;23;20009;-84
2023/11/12 00:46:30;;;;;;;8.73;5.03;;;;;;;8.15;92.65;99445.28;6126491;23;20010;-84
2023/11/12 00:48:57;;;;;;;10.38;5.72;;;;;;;7.78;92.49;99426.56;6121634;23;20046;-84
2023/11/12 00:51:23;;;;;;;12.80;8.88;;;;;;;7.83;92.25;99444.53;6122794;23;20029;-83
2023/11/12 00:53:49;;;;;;;11.32;8.27;;;;;;;7.85;92.11;99437.16;6122343;23;20010;-83
2023/11/12 00:56:14;;;;;;;14.23;10.43;;;;;;;7.68;93.01;99463.41;6121507;23;20400;-83
2023/11/12 00:58:40;;;;;;;7.72;4.63;;;;;;;7.78;93.02;99447.00;6122016;23;20073;-84
2023/11/12 01:01:06;;;;;;;8.88;4.53;;;;;;;7.82;89.01;99442.88;6121819;23;20006;-84
2023/11/12 01:03:32;;;;;;;7.72;4.07;;;;;;;7.59;88.14;99390.41;6121923;23;20017;-83
2023/11/12 01:06:02;;;;;;;6.72;3.53;;;;;;;8.10;86.56;99457.59;6121686;23;20010;-85
2023/11/12 01:08:29;;;;;;;8.55;3.58;;;;;;;8.14;86.59;99445.50;6121156;23;20428;-83
2023/11/12 01:10:55;;;;;;;6.47;3.03;;;;;;;8.20;84.88;99444.63;6122010;23;20052;-82
2023/11/12 01:13:20;;;;;;;6.85;3.13;;;;;;;8.34;84.55;99450.63;6121596;23;20347;-83
2023/11/12 01:15:46;;;;;;;5.47;2.55;;;;;;;8.49;82.35;99447.66;6121834;23;20037;-83
2023/11/12 01:18:11;;;;;;;5.78;2.75;;;;;;;8.63;81.19;99455.25;6121244;23;20014;-82
2023/11/12 01:20:37;;;;;;;5.68;2.42;;;;;;;8.62;79.99;99451.00;6123365;23;20454;-83
2023/11/12 01:23:02;;;;;;;3.95;1.98;;;;;;;8.76;80.54;99453.47;6121842;23;20006;-83
2023/11/12 01:25:28;;;;;;;7.57;2.55;;;;;;;8.68;80.87;99457.25;6123057;23;20037;-82
2023/11/12 01:27:54;;;;;;;7.30;2.65;;;;;;;8.53;81.14;99443.53;6121080;23;20017;-83
2023/11/12 01:30:19;;;;;;;5.50;2.92;;;;;;;8.58;81.34;99460.44;6121423;23;20009;-83
2023/11/12 01:32:52;;;;;;;5.30;2.58;;;;;;;8.39;82.10;99461.41;6123071;23;20006;-82
2023/11/12 01:35:19;;;;;;;7.70;2.53;;;;;;;8.46;80.92;99478.13;6123346;23;20060;-83
2023/11/12 01:37:45;;;;;;;8.02;3.17;;;;;;;8.41;82.13;99493.91;6123508;23;20017;-83
2023/11/12 01:40:15;;;;;;;6.07;2.78;;;;;;;8.33;81.56;99487.00;6121750;23;20377;-83
2023/11/12 01:42:42;;;;;;;8.98;3.92;;;;;;;8.06;83.10;99470.47;6122712;23;20423;-83
2023/11/12 01:45:09;;;;;;;6.47;2.92;;;;;;;8.15;83.70;99494.91;6121229;23;20081;-83
2023/11/12 01:47:40;;;;;;;6.93;3.60;;;;;;;8.07;83.96;99488.06;6122923;23;20040;-83
2023/11/12 01:50:08;;;;;;;6.75;3.40;;;;;;;8.09;84.32;99509.06;6122126;23;20014;-82
2023/11/12 01:52:34;;;;;;;;;;;;;;;7.96;84.87;99504.66;6123450;23;20002;-83
2023/11/12 01:55:01;;;;;;;8.55;3.15;;;;;;;7.59;86.86;99494.69;6121384;23;19909;-82
2023/11/12 01:57:28;;;;;;;7.55;4.00;;;;;;;7.60;87.46;99499.00;6125546;23;20017;-83
2023/11/12 01:59:53;;;;;;;8.00;3.47;;;;;;;7.62;85.87;99502.25;6123072;23;20057;-82
2023/11/12 02:02:20;;;;;;;8.43;3.67;;;;;;;7.61;84.94;99463.44;6122004;23;20006;-83
2023/11/12 02:04:48;;;;;;;8.50;3.13;;;;;;;7.68;84.57;99479.31;6122756;23;20005;-82
2023/11/12 02:07:14;;;;;;;5.40;2.63;;;;;;;7.56;85.18;99471.25;6121107;23;20064;-83
2023/11/12 02:09:41;;;;;;;6.00;2.50;;;;;;;7.39;85.84;99481.53;6121051;23;20014;-82
2023/11/12 02:12:07;;;;;;;5.13;2.05;;;;;;;7.61;85.29;99482.03;6122753;23;20045;-81
2023/11/12 02:14:32;;;;;;;3.70;1.77;;;;;;;7.49;85.05;99477.63;6121324;23;20006;-83
2023/11/12 02:16:59;;;;;;;4.40;1.70;;;;;;;7.76;85.46;99495.00;6120734;23;20348;-83
2023/11/12 02:19:29;;;;;;;3.05;1.73;;;;;;;7.85;83.62;99493.72;6122357;23;20440;-84
2023/11/12 02:21:55;;;;;;;6.75;2.03;;;;;;;7.93;82.84;99482.03;6121336;23;20009;-84
2023/11/12 02:24:23;;;;;;;6.30;1.65;;;;;;;7.94;82.51;99477.53;6121140;23;20006;-82
2023/11/12 02:26:49;;;;;;;3.42;1.50;;;;;;;8.12;81.97;99490.06;6120674;23;20022;-83
2023/11/12 02:29:16;;;;;;;3.22;1.70;;;;;;;8.18;81.57;99494.50;6120854;23;20016;-83
2023/11/12 02:31:44;;;;;;;6.28;1.80;;;;;;;7.94;82.34;99478.31;6122473;23;20064;-84
2023/11/12 02:34:10;;;;;;;3.75;1.63;;;;;;;8.13;82.13;99491.66;6121256;23;20010;-84
2023/11/12 02:36:37;;;;;;;2.97;1.63;;;;;;;8.22;81.15;99479.75;6120986;23;20010;-82
2023/11/12 02:39:03;;;;;;;8.40;2.67;;;;;;;8.15;81.45;99473.66;6121101;23;20016;-83
2023/11/12 02:41:30;;;;;;;2.53;1.25;;;;;;;8.29;81.44;99483.16;6120962;23;20049;-84
2023/11/12 02:43:55;;;;;;;3.88;1.48;;;;;;;8.23;81.99;99481.38;6122231;23;20006;-82
2023/11/12 02:46:24;;;;;;;5.15;1.67;;;;;;;8.37;82.32;99509.44;6120804;23;20005;-83
2023/11/12 02:49:02;;;;;;;2.85;1.30;;;;;;;8.35;82.59;99508.84;6128207;23;20166;-83
2023/11/12 02:51:28;;;;;;;3.70;1.73;;;;;;;8.29;82.80;99488.47;6125727;23;20447;-82
2023/11/12 02:53:54;;;;;;;3.33;1.42;;;;;;;8.54;81.64;99514.22;6151869;23;20012;-82
2023/11/12 02:56:22;;;;;;;4.78;1.65;;;;;;;8.48;82.02;99497.34;6125520;23;20021;-82
2023/11/12 02:58:48;;;;;;;2.88;1.38;;;;;;;8.32;83.37;99505.84;6125227;23;20013;-82
2023/11/12 03:01:14;;;;;;;3.75;1.40;;;;;;;8.39;82.37;99490.63;6125978;23;20053;-82
2023/11/12 03:03:40;;;;;;;11.77;2.28;;;;;;;8.40;82.48;99513.53;6151994;23;20005;-82
2023/11/12 03:06:05;;;;;;;2.42;1.38;;;;;;;8.32;83.31;99508.50;6125758;23;20399;-82
2023/11/12 03:08:31;;;;;;;3.63;1.40;;;;;;;8.57;81.87;99529.75;6125592;23;20013;-83
2023/11/12 03:10:56;;;;;;;5.85;1.70;;;;;;;8.25;83.42;99497.91;6125841;23;20013;-84
2023/11/12 03:13:22;;;;;;;6.35;1.42;;;;;;;8.43;82.58;99507.78;6152554;23;20068;-84
2023/11/12 03:15:47;;;;;;;4.50;1.23;;;;;;;8.56;82.29;99517.47;6154783;23;20045;-83
2023/11/12 03:18:13;;;;;;;3.25;1.27;;;;;;;8.61;80.90;99525.63;6128719;23;19998;-82
2023/11/12 03:20:39;;;;;;;4.45;1.27;;;;;;;8.36;82.29;99513.16;6129325;23;20017;-83
2023/11/12 03:23:04;;;;;;;6.28;1.67;;;;;;;8.09;83.75;99507.25;6128666;23;20056;-85
2023/11/12 03:25:30;;;;;;;4.45;1.55;;;;;;;8.05;83.16;99522.78;6129247;23;20033;-83
2023/11/12 03:27:55;;;;;;;3.63;1.50;;;;;;;7.91;84.13;99520.44;6128927;23;20033;-83
2023/11/12 03:30:21;;;;;;;4.95;1.60;;;;;;;7.61;86.82;99508.56;6128911;23;20014;-83
2023/11/12 03:32:46;;;;;;;3.83;1.70;;;;;;;7.54;86.21;99515.75;6128439;23;20017;-83
2023/11/12 03:35:12;;;;;;;7.22;3.75;;;;;;;7.34;89.14;99509.75;6154860;23;20020;-83
2023/11/12 03:37:37;;;;;;;4.80;1.67;;;;;;;7.28;91.37;99531.81;6128758;23;20096;-83
2023/11/12 03:40:04;;;;;;;9.85;4.57;;;;;;;7.10;91.48;99541.22;6128642;23;20447;-84
2023/11/12 03:42:29;;;;;;;8.05;3.35;;;;;;;6.87;95.39;99533.75;6128960;23;20013;-82
2023/11/12 03:44:56;;;;;;;3.83;2.00;;;;;;;6.59;95.71;99513.63;6128502;23;20036;-83
2023/11/12 03:47:24;;;;;;;5.50;2.10;;;;;;;6.49;96.50;99515.88;6154830;23;20008;-82
2023/11/12 03:49:49;;;;;;;6.55;2.50;;;;;;;6.47;97.20;99517.09;6128697;23;20391;-82
2023/11/12 03:52:15;;;;;;;6.78;2.40;;;;;;;6.69;96.91;99534.41;6128476;23;20067;-83
2023/11/12 03:54:40;;;;;;;5.18;1.92;;;;;;;6.58;96.30;99519.16;6128484;23;20459;-82
2023/11/12 03:57:06;;;;;;;5.28;2.15;;;;;;;6.44;98.77;99539.53;6128770;23;20051;-83
2023/11/12 03:59:31;;;;;;;8.23;4.10;;;;;;;6.38;98.42;99537.69;6128126;23;20371;-82
2023/11/12 04:01:57;;;;;;;6.93;3.03;;;;;;;6.38;99.16;99533.22;6128435;23;20013;-82
2023/11/12 04:04:22;;;;;;;4.55;2.78;;;;;;;6.24;99.61;99558.88;6155011;23;20009;-82
2023/11/12 04:06:47;;;;;;;6.93;2.75;;;;;;;6.18;100.00;99543.78;6154592;23;20354;-84
2023/11/12 04:09:13;;;;;;;7.18;3.00;;;;;;;6.31;99.39;99550.91;6128926;23;20423;-83
2023/11/12 04:11:40;;;;;;;5.28;2.28;;;;;;;6.07;98.98;99535.63;6128796;23;20001;-83
2023/11/12 04:14:07;;;;;;;5.87;2.90;;;;;;;6.07;99.13;99560.28;6128222;23;20005;-82
2023/11/12 04:16:34;;;;;;;5.47;2.80;;;;;;;5.97;99.83;99563.31;6127891;23;20001;-83
2023/11/12 04:19:03;;;;;;;10.10;3.63;;;;;;;5.82;99.10;99563.47;6128505;23;20360;-83
2023/11/12 04:21:30;;;;;;;15.50;7.45;;;;;;;5.67;99.80;99569.94;6128957;23;20068;-82
2023/11/12 04:23:55;;;;;;;8.05;3.97;;;;;;;5.44;100.00;99563.97;6128443;23;20008;-81
2023/11/12 04:26:22;;;;;;;6.68;3.10;;;;;;;5.64;99.61;99568.50;6126765;23;20096;-82
2023/11/12 04:28:47;;;;;;;6.95;2.78;;;;;;;5.91;98.61;99569.41;6127030;23;20032;-84
2023/11/12 04:31:13;;;;;;;5.15;2.20;;;;;;;5.94;97.08;99563.69;6153120;23;20371;-83
2023/11/12 04:33:38;;;;;;;5.45;2.50;;;;;;;6.01;97.33;99591.03;6152925;23;20001;-82
2023/11/12 04:36:04;;;;;;;5.93;3.05;;;;;;;5.97;97.92;99584.50;6126707;23;20009;-81
2023/11/12 04:38:30;;;;;;;10.65;6.57;;;;;;;5.84;98.04;99587.91;6126308;23;20013;-82
2023/11/12 04:40:55;;;;;;;28.40;20.50;;;;;;;5.53;99.97;99593.69;6152653;23;20009;-81
2023/11/12 04:43:21;;;;;;;94.07;57.53;;;;;;;5.68;99.41;99587.44;6126144;23;20001;-83
2023/11/12 04:45:46;;;;;;;28.00;18.17;;;;;;;5.34;100.00;99583.84;6126721;23;20016;-83
2023/11/12 04:48:12;;;;;;;7.60;3.55;;;;;;;5.01;100.00;99610.91;6126315;23;20037;-83
2023/11/12 04:50:38;;;;;;;9.55;4.13;;;;;;;5.15;100.00;99625.84;6152021;23;20041;-83
2023/11/12 04:53:04;;;;;;;8.80;4.88;;;;;;;5.36;100.00;99619.66;6126801;23;20463;-83
2023/11/12 04:55:30;;;;;;;13.05;7.57;;;;;;;5.52;100.00;99613.22;6126289;23;20008;-83
2023/11/12 04:57:56;;;;;;;26.88;21.23;;;;;;;4.90;100.00;99606.16;6152528;23;20005;-83
2023/11/12 05:00:22;;;;;;;8.98;5.32;;;;;;;5.28;100.00;99635.69;6126272;23;20340;-84
2023/11/12 05:02:48;;;;;;;21.65;17.30;;;;;;;5.27;100.00;99610.28;6126433;23;20040;-83
2023/11/12 05:05:14;;;;;;;8.40;4.30;;;;;;;5.47;99.57;99620.91;6126455;23;20002;-84
2023/11/12 05:07:40;;;;;;;18.90;15.38;;;;;;;5.40;100.00;99635.94;6126099;23;20010;-84
2023/11/12 05:10:08;;;;;;;11.93;6.60;;;;;;;4.83;100.00;99630.72;6125842;23;20075;-81
2023/11/12 05:12:34;;;;;;;13.45;7.75;;;;;;;4.49;100.00;99651.75;6126357;23;20013;-83
2023/11/12 05:15:00;;;;;;;11.02;6.18;;;;;;;4.33;100.00;99640.47;6126427;23;20084;-82
2023/11/12 05:17:27;;;;;;;9.18;4.97;;;;;;;4.81;100.00;99658.34;6126382;23;20017;-83
2023/11/12 05:19:52;;;;;;;10.00;5.35;;;;;;;5.04;100.00;99666.03;6126080;23;20091;-85
2023/11/12 05:22:18;;;;;;;10.55;5.90;;;;;;;4.96;100.00;99653.75;6125936;23;20009;-82
2023/11/12 05:24:43;;;;;;;9.10;5.25;;;;;;;5.02;100.00;99639.78;6126325;23;20009;-83
2023/11/12 05:27:09;;;;;;;13.25;6.72;;;;;;;5.06;100.00;99645.50;6126386;23;20092;-82
2023/11/12 05:29:34;;;;;;;11.90;6.07;;;;;;;5.37;100.00;99674.19;6152385;23;20005;-83
2023/11/12 05:32:00;;;;;;;10.38;5.40;;;;;;;4.74;100.00;99663.56;6126219;23;20023;-83
2023/11/12 05:34:25;;;;;;;10.88;6.35;;;;;;;4.80;100.00;99689.22;6126282;23;20013;-83
2023/11/12 05:36:51;;;;;;;13.82;8.77;;;;;;;4.79;100.00;99676.19;6126532;23;20552;-83
2023/11/12 05:39:17;;;;;;;17.65;10.32;;;;;;;4.75;100.00;99696.09;6152019;23;20017;-83
2023/11/12 05:41:43;;;;;;;11.80;8.18;;;;;;;5.08;100.00;99701.63;6126346;23;20009;-83
2023/11/12 05:44:09;;;;;;;21.58;9.93;;;;;;;5.04;100.00;99681.88;6125945;23;20396;-83
2023/11/12 05:46:34;;;;;;;16.75;8.50;;;;;;;5.36;100.00;99706.09;6126100;23;20012;-83
2023/11/12 05:49:00;;;;;;;15.60;8.85;;;;;;;5.20;100.00;99681.59;6125630;23;20021;-84
2023/11/12 05:51:25;;;;;;;16.98;7.65;;;;;;;5.29;100.00;99708.72;6126368;23;20048;-83
2023/11/12 05:53:50;;;;;;;13.48;8.35;;;;;;;5.29;100.00;99702.59;6152568;23;20071;-83
2023/11/12 05:56:16;;;;;;;14.43;8.07;;;;;;;4.74;100.00;99699.72;6125984;23;20009;-82
2023/11/12 05:58:41;;;;;;;13.23;7.88;;;;;;;5.07;100.00;99718.50;6152150;23;20016;-83
2023/11/12 06:01:07;;;;;;;18.67;8.68;;;;;;;5.08;100.00;99706.91;6126110;23;20152;-81
2023/11/12 06:03:32;;;;;;;13.18;8.23;;;;;;;5.04;100.00;99700.38;6126166;23;20045;-84
2023/11/12 06:05:58;;;;;;;14.63;8.25;;;;;;;5.17;100.00;99705.78;6126196;23;20454;-84
2023/11/12 06:08:23;;;;;;;22.58;7.90;;;;;;;5.31;100.00;99708.50;6125499;23;20013;-84
2023/11/12 06:10:49;;;;;;;17.02;9.73;;;;;;;5.33;100.00;99703.84;6125344;23;20009;-83
2023/11/12 06:13:15;;;;;;;13.38;8.35;;;;;;;5.57;100.00;99700.72;6125436;23;20012;-82
2023/11/12 06:15:41;;;;;;;12.85;8.75;;;;;;;5.46;100.00;99708.41;6125530;23;20080;-83
2023/11/12 06:18:07;;;;;;;14.05;8.23;;;;;;;5.00;100.00;99641.00;6125451;23;20010;-83
2023/11/12 06:20:33;;;;;;;19.00;10.60;;;;;;;5.47;100.00;99694.97;6125385;23;20332;-83
2023/11/12 06:22:58;;;;;;;27.90;13.10;;;;;;;5.10;100.00;99681.09;6150611;23;20005;-81
2023/11/12 06:25:24;;;;;;;24.48;12.68;;;;;;;5.52;100.00;99708.44;6123779;23;20363;-82
2023/11/12 06:27:50;;;;;;;16.50;10.40;;;;;;;5.80;100.00;99710.19;6123819;23;20013;-83
2023/11/12 06:30:16;;;;;;;14.55;9.27;;;;;;;5.59;100.00;99698.69;6124822;23;20359;-82
2023/11/12 06:32:42;;;;;;;14.80;9.30;;;;;;;5.33;100.00;99703.84;6125131;23;20412;-82
2023/11/12 06:35:08;;;;;;;12.90;9.57;;;;;;;5.49;100.00;99742.38;6126375;23;20044;-85
2023/11/12 06:37:33;;;;;;;15.98;11.68;;;;;;;6.17;100.00;99753.16;6126614;23;20009;-87
2023/11/12 06:39:59;;;;;;;15.85;8.77;;;;;;;5.79;100.00;99740.34;6126715;23;20033;-85
2023/11/12 06:42:25;;;;;;;10.50;7.82;;;;;;;6.21;99.85;99770.28;6126398;23;20005;-85
2023/11/12 06:44:51;;;;;;;13.13;9.90;;;;;;;6.39;99.75;99759.97;6126627;23;20020;-85
2023/11/12 06:47:16;;;;;;;10.32;5.38;;;;;;;6.38;100.00;99750.41;6126377;23;20363;-85
2023/11/12 06:49:42;;;;;;;8.43;5.05;;;;;;;6.63;100.00;99773.69;6125743;23;20017;-85
2023/11/12 06:52:07;;;;;;;7.13;4.88;;;;;;;6.52;100.00;99739.81;6126535;23;20127;-85
2023/11/12 06:54:35;;;;;;;7.60;4.18;;;;;;;6.77;100.00;99770.06;6126228;23;20016;-85
2023/11/12 06:57:00;;;;;;;7.57;4.82;;;;;;;7.28;100.00;99784.59;6126476;23;20044;-87
2023/11/12 06:59:26;;;;;;;7.28;4.10;;;;;;;7.53;99.24;99783.97;6126203;23;20084;-85
2023/11/12 07:01:51;;;;;;;8.00;4.30;;;;;;;7.39;100.00;99783.16;6126368;23;20016;-87
2023/11/12 07:04:17;;;;;;;7.75;4.88;;;;;;;7.30;100.00;99763.97;6126555;23;20411;-85
2023/11/12 07:06:43;;;;;;;12.75;9.25;;;;;;;7.22;100.00;99782.75;6126273;23;20009;-84
2023/11/12 07:09:08;;;;;;;17.20;10.77;;;;;;;7.40;100.00;99784.78;6126416;23;20021;-84
2023/11/12 07:11:34;;;;;;;15.18;9.52;;;;;;;7.58;98.41;99790.28;6125668;23;20006;-88
2023/11/12 07:14:00;;;;;;;16.08;9.70;;;;;;;7.86;98.14;99799.81;6126541;23;20055;-88
2023/11/12 07:16:25;;;;;;;12.65;8.57;;;;;;;8.18;94.40;99810.59;6125883;23;20037;-88
2023/11/12 07:18:51;;;;;;;11.63;7.43;;;;;;;8.48;90.82;99818.06;6126583;23;20072;-85
2023/11/12 07:21:23;;;;;;;12.23;7.57;;;;;;;8.48;92.31;99787.00;6126425;23;20002;-86
2023/11/12 07:23:49;;;;;;;12.43;7.38;;;;;;;8.57;92.89;99811.47;6126684;23;20010;-87
2023/11/12 07:26:14;;;;;;;12.85;7.55;;;;;;;8.96;92.72;99821.06;6126384;23;20014;-85
2023/11/12 07:28:40;;;;;;;14.32;7.50;;;;;;;9.22;90.99;99813.97;6125763;23;20013;-85
2023/11/12 07:31:05;;;;;;;12.07;8.05;;;;;;;9.20;93.26;99789.41;6126173;23;20113;-86
2023/11/12 07:33:31;;;;;;;14.55;7.32;;;;;;;9.55;92.62;99804.88;6125988;23;20152;-86
2023/11/12 07:35:56;;;;;;;9.27;6.93;;;;;;;9.04;93.50;99796.06;6126113;23;20141;-85
2023/11/12 07:38:22;;;;;;;8.48;6.38;;;;;;;9.11;93.00;99828.75;6125612;23;20100;-86
2023/11/12 07:40:47;;;;;;;9.30;6.28;;;;;;;9.21;92.86;99831.78;6125813;23;20005;-87
2023/11/12 07:43:13;;;;;;;8.88;4.93;;;;;;;9.51;89.70;99831.13;6126117;23;20447;-85
2023/11/12 07:45:39;;;;;;;8.18;4.70;;;;;;;9.89;90.37;99830.19;6151730;23;20005;-85
2023/11/12 07:48:06;;;;;;;6.95;4.50;;;;;;;9.93;91.42;99827.88;6125815;23;20014;-86
2023/11/12 07:50:31;;;;;;;6.80;4.53;;;;;;;10.25;88.75;99807.25;6125613;23;20021;-85
2023/11/12 07:52:57;;;;;;;6.22;3.78;;;;;;;10.04;85.90;99811.97;6125987;23;20333;-87
2023/11/12 07:55:25;;;;;;;6.72;3.47;;;;;;;10.02;85.94;99803.41;6126185;23;20005;-87
2023/11/12 07:57:50;;;;;;;6.10;2.97;;;;;;;10.19;86.04;99818.78;6126197;23;20013;-89
2023/11/12 08:00:19;;;;;;;4.38;2.63;;;;;;;10.35;83.58;99807.56;6126022;23;20036;-84
2023/11/12 08:02:47;;;;;;;6.00;2.80;;;;;;;10.33;83.61;99804.31;6127522;23;20466;-85
2023/11/12 08:05:12;;;;;;;3.55;2.15;;;;;;;10.76;81.65;99800.69;6127469;23;20017;-85
2023/11/12 08:07:38;;;;;;;9.20;4.60;;;;;;;11.22;77.83;99801.84;6153369;23;20072;-85
2023/11/12 08:10:05;;;;;;;15.60;7.60;;;;;;;11.74;80.24;99829.78;6127892;23;20006;-85
2023/11/12 08:12:31;;;;;;;5.13;2.30;;;;;;;11.92;72.42;99808.31;6127414;23;20358;-86
2023/11/12 08:14:57;;;;;;;4.30;1.98;;;;;;;12.04;73.59;99801.09;6127484;23;20006;-85
2023/11/12 08:17:22;;;;;;;4.95;2.45;;;;;;;12.03;74.62;99812.84;6127522;23;20097;-88
2023/11/12 08:19:48;;;;;;;5.25;2.30;;;;;;;12.25;76.85;99820.22;6127923;23;20347;-86
2023/11/12 08:22:13;;;;;;;3.15;1.90;;;;;;;12.29;74.94;99821.38;6127656;23;20041;-86
2023/11/12 08:24:39;;;;;;;5.88;2.22;;;;;;;12.67;74.16;99825.34;6128050;23;20423;-86
2023/11/12 08:27:04;;;;;;;4.50;1.83;;;;;;;12.10;77.07;99811.91;6127574;23;20495;-86
2023/11/12 08:29:31;;;;;;;3.45;1.95;;;;;;;12.73;74.19;99820.88;6126773;23;20097;-83
2023/11/12 08:31:57;;;;;;;4.18;1.70;;;;;;;13.07;74.10;99800.34;6126959;23;20013;-82
2023/11/12 08:34:23;;;;;;;3.53;1.77;;;;;;;13.65;68.17;99820.63;6126922;23;20100;-82
2023/11/12 08:36:52;;;;;;;3.03;1.73;;;;;;;13.43;70.72;99806.34;6126958;23;21216;-82
2023/11/12 08:39:18;;;;;;;2.90;1.65;;;;;;;13.93;66.09;99826.91;6153044;23;20013;-82
2023/11/12 08:41:46;;;;;;;2.75;1.40;;;;;;;14.16;69.30;99822.38;6126612;23;20016;-84
2023/11/12 08:44:13;;;;;;;4.45;1.80;;;;;;;14.12;66.24;99829.28;6127487;23;20531;-84
2023/11/12 08:46:39;;;;;;;3.95;1.60;;;;;;;13.57;67.73;99809.50;6127068;23;20029;-84
2023/11/12 08:49:06;;;;;;;3.58;1.42;;;;;;;13.40;66.85;99814.84;6126709;23;20020;-84
2023/11/12 08:51:32;;;;;;;4.10;1.50;;;;;;;13.47;68.42;99799.44;6127026;23;20528;-84
2023/11/12 08:53:57;;;;;;;3.67;1.50;;;;;;;14.05;63.52;99794.63;6127447;23;20009;-85
2023/11/12 08:56:23;;;;;;;2.83;1.50;;;;;;;14.10;64.28;99781.31;6127547;23;20009;-83
2023/11/12 08:58:48;;;;;;;3.45;1.20;;;;;;;14.41;61.12;99809.28;6127516;23;20005;-85
2023/11/12 09:01:14;;;;;;;3.97;1.40;;;;;;;14.59;63.88;99810.06;6127114;23;20092;-86
2023/11/12 09:03:40;;;;;;;3.65;1.60;;;;;;;14.65;61.29;99817.13;6127405;23;20093;-86
2023/11/12 09:06:06;;;;;;;3.55;1.40;;;;;;;14.82;61.71;99836.63;6131918;23;20048;-86
2023/11/12 09:08:31;;;;;;;4.43;1.70;;;;;;;15.12;60.61;99845.22;6136799;23;20005;-86
2023/11/12 09:10:57;;;;;;;4.15;1.60;;;;;;;14.66;63.21;99842.88;6136169;23;20005;-87
2023/11/12 09:13:22;;;;;;;2.67;1.40;;;;;;;14.46;63.01;99828.16;6136226;23;20009;-86
2023/11/12 09:15:48;;;;;;;1.95;1.10;;;;;;;14.94;63.00;99841.03;6136341;23;20113;-85
2023/11/12 09:18:14;;;;;;;2.85;1.30;;;;;;;15.16;59.51;99841.81;6136511;23;20036;-86
2023/11/12 09:20:39;;;;;;;5.32;1.30;;;;;;;15.64;60.80;99831.16;6136429;23;20064;-85
2023/11/12 09:23:05;;;;;;;2.95;1.30;;;;;;;15.58;54.58;99827.63;6137692;23;20029;-84
2023/11/12 09:25:31;;;;;;;2.78;1.50;;;;;;;15.49;56.42;99818.44;6137944;23;20053;-85
2023/11/12 09:27:57;;;;;;;2.17;1.27;;;;;;;15.81;54.08;99837.25;6136128;23;20009;-86
2023/11/12 09:30:23;;;;;;;3.67;1.48;;;;;;;15.91;55.11;99841.84;6135558;23;20060;-85
2023/11/12 09:32:49;;;;;;;3.35;1.00;;;;;;;15.95;53.08;99821.44;6135778;23;20013;-86
2023/11/12 09:35:14;;;;;;;4.07;1.70;;;;;;;16.33;51.25;99822.19;6131831;23;20116;-87
2023/11/12 09:37:41;;;;;;;2.80;1.08;;;;;;;16.86;49.08;99836.38;6132206;23;20013;-87
2023/11/12 09:40:10;;;;;;;2.70;1.25;;;;;;;17.33;45.82;99817.56;6132819;23;20001;-87
2023/11/12 09:42:38;;;;;;;2.83;1.33;;;;;;;17.49;45.32;99813.78;6132049;23;20012;-86
2023/11/12 09:45:05;;;;;;;5.00;1.90;;;;;;;17.22;43.49;99831.06;6131666;23;20009;-87
2023/11/12 09:47:46;;;;;;;1.60;0.77;;;;;;;17.22;43.86;99825.66;6132287;23;20006;-87
2023/11/12 09:50:12;;;;;;;3.42;1.20;;;;;;;17.14;42.26;99788.47;6131758;23;20264;-86
2023/11/12 09:52:39;;;;;;;4.47;1.40;;;;;;;17.46;44.75;99798.94;6107529;23;20514;-86
2023/11/12 09:55:06;;;;;;;2.15;0.80;;;;;;;17.44;40.37;99786.84;6131597;23;20017;-88
2023/11/12 09:57:33;;;;;;;2.15;1.02;;;;;;;17.77;41.71;99790.00;6131447;23;20006;-85
2023/11/12 09:59:58;;;;;;;3.10;1.10;;;;;;;17.91;39.83;99801.88;6132093;23;20021;-86
2023/11/12 10:02:25;;;;;;;2.67;0.80;;;;;;;17.79;39.36;99798.63;6130456;23;20009;-87
2023/11/12 10:04:58;;;;;;;1.75;0.75;;;;;;;17.70;38.29;99792.19;6129657;23;20440;-86
2023/11/12 10:07:25;;;;;;;2.85;0.70;;;;;;;17.95;38.83;99775.16;6128787;23;20096;-86
2023/11/12 10:09:51;;;;;;;2.78;0.70;;;;;;;18.10;39.26;99803.97;6128033;23;20016;-87
2023/11/12 10:12:16;;;;;;;2.75;0.70;;;;;;;18.14;35.48;99775.34;6127877;23;20009;-87
2023/11/12 10:14:43;;;;;;;3.88;0.77;;;;;;;18.13;36.44;99784.56;6127801;23;20005;-85
2023/11/12 10:17:11;;;;;;;2.42;0.50;;;;;;;18.48;38.53;99794.38;6126942;23;20032;-85
2023/11/12 10:19:37;;;;;;;1.30;0.57;;;;;;;18.18;35.79;99784.53;6127242;23;20016;-87
2023/11/12 10:22:03;;;;;;;2.05;0.80;;;;;;;18.52;37.34;99783.84;6127455;23;20072;-86
2023/11/12 10:24:41;;;;;;;2.50;0.70;;;;;;;18.64;36.86;99782.41;6126765;23;20077;-86
2023/11/12 10:27:07;;;;;;;1.30;0.40;;;;;;;18.94;34.21;99791.44;6127147;23;20006;-86
2023/11/12 10:29:32;;;;;;;2.58;0.57;;;;;;;18.77;33.94;99780.97;6126657;23;20085;-87
2023/11/12 10:31:58;;;;;;;1.60;0.77;;;;;;;18.72;33.62;99774.81;6126678;23;20089;-85
2023/11/12 10:34:26;;;;;;;2.10;0.50;;;;;;;18.95;33.00;99770.63;6126509;23;20005;-86
2023/11/12 10:37:01;;;;;;;1.88;0.55;;;;;;;18.91;34.54;99780.38;6126321;23;20009;-86
2023/11/12 10:39:33;;;;;;;2.53;0.80;;;;;;;19.18;34.98;99750.97;6126408;23;20006;-86
2023/11/12 10:42:00;;;;;;;1.85;0.63;;;;;;;19.48;33.80;99741.75;6126459;23;20029;-85
2023/11/12 10:44:26;;;;;;;2.57;0.90;;;;;;;19.83;32.83;99768.75;6126451;23;20020;-86
2023/11/12 10:46:53;;;;;;;2.90;0.60;;;;;;;19.75;33.28;99755.88;6126631;23;20009;-85
2023/11/12 10:49:20;;;;;;;3.08;0.88;;;;;;;19.81;33.89;99738.47;6126186;23;20018;-85
2023/11/12 10:51:47;;;;;;;2.70;0.60;;;;;;;19.85;32.51;99750.34;6152455;23;20439;-86
2023/11/12 10:54:14;;;;;;;2.70;0.80;;;;;;;19.92;32.64;99740.00;6126218;23;20020;-86
2023/11/12 10:56:39;;;;;;;2.63;0.70;;;;;;;19.95;33.78;99742.09;6126044;23;20010;-85
2023/11/12 10:59:07;;;;;;;2.22;0.63;;;;;;;20.19;32.33;99744.00;6126060;23;20328;-84
2023/11/12 11:01:36;;;;;;;1.63;0.53;;;;;;;20.42;32.57;99731.47;6126171;23;20009;-85
2023/11/12 11:04:05;;;;;;;3.65;0.70;;;;;;;20.59;30.25;99728.28;6125797;23;20436;-85
2023/11/12 11:06:32;;;;;;;0.90;0.60;;;;;;;20.47;29.87;99753.06;6126138;23;20013;-84
2023/11/12 11:08:58;;;;;;;2.65;0.60;;;;;;;20.47;30.42;99745.78;6126055;23;20150;-86
2023/11/12 11:11:24;;;;;;;0.98;0.52;;;;;;;20.63;30.52;99748.28;6126388;23;20070;-85
2023/11/12 11:13:50;;;;;;;3.35;0.40;;;;;;;20.40;29.17;99745.31;6126128;23;20009;-83
2023/11/12 11:16:47;;;;;;;1.90;0.40;;;;;;;20.36;30.32;99771.38;6126485;23;20032;-83
2023/11/12 11:19:13;;;;;;;1.85;0.50;;;;;;;20.22;31.23;99755.03;6126301;23;20009;-86
2023/11/12 11:21:38;;;;;;;2.50;0.63;;;;;;;20.51;31.91;99766.84;6125682;23;20013;-85
2023/11/12 11:24:04;;;;;;;3.90;0.80;;;;;;;20.14;32.33;99731.31;6125694;23;20010;-85
2023/11/12 11:26:37;;;;;;;1.70;0.57;;;;;;;20.10;31.29;99746.50;6126120;23;20001;-84
2023/11/12 11:29:07;;;;;;;2.13;0.60;;;;;;;20.26;32.19;99760.66;6125617;23;20071;-84